Terminal Aerodrome Forecast
Issued by NWS Sioux Falls, SD

Home | Current Version | Previous Version | Text Only | Print | Product List | Glossary Off
Versions: 1 2 3 4 5 6 7 8 9 10 11 12 13 14 15

000
FTUS43 KFSD 281720
TAFFSD
TAF
KFSD 281720Z 2818/2918 03007KT P6SM BKN015
     FM281900 03008KT P6SM BKN020
     FM282200 03008KT P6SM BKN035
     FM290700 05004KT P6SM BKN250=

USA.gov is the U.S. government's official web portal to all federal, state and local government web resources and services.